Airfield :







YOU CAN JOIN US ON...

 
LOGIN :

Register | Disclaimer

   EN    FR    IT 

 









Legend :    VFR   Marginal VFR   IFR   Intensive IFR   Very Intensive IFR
Visi :
Ceiling :
>= 8 km
>= 3000ft
5 to 8 km
1000 to 3000 ft
1500m to 5 km
500 to 1000 ft
800 to 1500m
200 to 500 ft
< 800m
< 200 ft
Symbols :   Thunderstorms  Fog  Heavy snow  Heavy precipitations  Wind > 20 kt







- Airport Elevation : 1709 ft
- IATA code : YKL


CYKL - Schefferville

CURRENT METAR :
  • 201400Z AUTO VRB03KT 9SM SCT065 SCT076 BKN110 13/07 A2977 RMK SLP095 DENSITY ALT 2000FT

EXPIRED METARs :
  • 201300Z AUTO VRB02KT 9SM SCT060 OVC084 11/08 A2979 RMK SLP102 DENSITY ALT 1800FT
  • 201246Z AUTO 14003KT 080V230 9SM BKN055 OVC086 11/08 A2979 RMK SLP103
  • 201200Z AUTO 18004KT 6SM RA BR BKN035 OVC045 10/09 A2979 RMK SLP102

TAF TAF CYKL
Valid from the 20 at 14:00 until the 21 at 02:00 UTC


201341Z 2014/2102 VRB03KT P6SM SCT060 BKN080
TEMPO 2014/2024 5SM -SHRA BR BKN020 BKN080
PROB30 2018/2024 2SM TSRA BR BKN020 OVC030CB
FM210000 VRB03KT P6SM BKN040 RMK FCST BASED ON AUTO OBS. NXT FCST BY 202000Z
CZUL FIR / North America



MET'MAP, your aeronautical weather chart ! - Copyright ORBIFLY December 2007 - Disclaimer

ORBIFLY MET'MAP TEAM :

Programming & Development : Alexandra Zaïnal
Concept & Development : Baudouin d'Aumeries
Co-Development & Prog : Marc-Olivier Méhu
Technical & hardware support : Manuel Goepfert

Contact : metmap@orbifly.com




SOURCES & CREDITS :

   NOAA